createdAt,value
2019-03-23T08:19:50.291Z,98707.03
2019-03-23T08:21:51.880Z,98718.47
2019-03-23T08:23:53.488Z,98722.52
2019-03-23T08:25:55.660Z,98723.86
2019-03-23T08:27:57.268Z,98720.91
2019-03-23T08:29:58.892Z,98721.80
2019-03-23T08:32:00.548Z,98719.67
2019-03-23T08:34:02.157Z,98719.25
2019-03-23T08:36:03.781Z,98725.70
2019-03-23T08:38:05.383Z,98718.06
2019-03-23T08:40:07.004Z,98726.22
2019-03-23T08:42:08.588Z,98715.36
2019-03-23T08:44:10.173Z,98714.75
2019-03-23T08:46:11.811Z,98722.29
2019-03-23T08:48:13.400Z,98718.41
2019-03-23T08:50:15.015Z,98720.22
2019-03-23T08:52:16.601Z,98722.69
2019-03-23T08:54:18.249Z,98717.41
2019-03-23T08:56:19.859Z,98723.70
2019-03-23T08:58:21.462Z,98716.55
2019-03-23T09:00:23.048Z,98716.48
2019-03-23T09:02:24.657Z,98717.08
2019-03-23T09:04:26.254Z,98712.95
2019-03-23T09:06:27.868Z,98717.77
2019-03-23T09:08:29.459Z,98713.05
2019-03-23T09:10:31.064Z,98713.25
2019-03-23T09:12:32.651Z,98713.35
2019-03-23T09:14:34.227Z,98706.28
2019-03-23T09:16:35.818Z,98708.62
2019-03-23T09:18:37.463Z,98706.81
2019-03-23T09:20:39.076Z,98700.22
2019-03-23T09:22:40.673Z,98697.05
2019-03-23T09:24:42.290Z,98703.53
2019-03-23T09:26:43.926Z,98704.05
2019-03-23T09:28:45.578Z,98702.77
2019-03-23T09:30:47.188Z,98698.13
2019-03-23T09:32:48.837Z,98708.34
2019-03-23T09:34:50.445Z,98696.00
2019-03-23T09:36:52.062Z,98696.50
2019-03-23T09:38:53.671Z,98694.16
2019-03-23T09:40:55.280Z,98694.82
2019-03-23T09:42:56.925Z,98688.73
2019-03-23T09:44:58.527Z,98682.75
2019-03-23T09:47:00.133Z,98684.83
2019-03-23T09:49:01.729Z,98685.25
2019-03-23T09:51:03.339Z,98685.20
2019-03-23T09:53:04.968Z,98690.37
2019-03-23T09:55:06.581Z,98682.70
2019-03-23T09:57:08.168Z,98681.84
2019-03-23T09:59:09.779Z,98683.94
2019-03-23T10:01:11.399Z,98677.14
2019-03-23T10:03:13.051Z,98680.56
2019-03-23T10:05:14.661Z,98680.52
2019-03-23T10:07:16.262Z,98684.25
2019-03-23T10:09:17.896Z,98683.64
2019-03-23T10:13:33.635Z,98677.72
2019-03-23T10:15:35.251Z,98675.16
2019-03-23T10:19:50.904Z,98670.94
2019-03-23T10:21:52.524Z,98669.25
2019-03-23T10:23:54.666Z,98667.23
2019-03-23T10:25:56.165Z,98664.70
2019-03-23T10:27:57.771Z,98671.45
2019-03-23T10:29:59.357Z,98667.95
2019-03-23T10:32:00.991Z,98670.17
2019-03-23T10:34:02.612Z,98670.62
2019-03-23T10:36:04.196Z,98661.81
2019-03-23T10:38:05.814Z,98661.63
2019-03-23T10:40:07.595Z,98661.69
2019-03-23T10:42:09.007Z,98659.27
2019-03-23T10:44:10.595Z,98661.26
2019-03-23T10:46:12.180Z,98659.83
2019-03-23T10:48:13.754Z,98659.42
2019-03-23T10:50:15.336Z,98660.60
2019-03-23T10:52:16.928Z,98659.20
2019-03-23T10:54:18.507Z,98651.49
2019-03-23T10:56:20.152Z,98658.03
2019-03-23T10:58:21.772Z,98658.61
2019-03-23T11:00:23.353Z,98658.91
2019-03-23T11:02:24.935Z,98663.36
2019-03-23T11:04:26.516Z,98660.02
2019-03-23T11:06:28.151Z,98658.44
2019-03-23T11:08:29.769Z,98658.06
2019-03-23T11:10:31.388Z,98652.98
2019-03-23T11:12:32.991Z,98645.48
2019-03-23T11:14:34.580Z,98645.59
2019-03-23T11:16:36.215Z,98643.07
2019-03-23T11:18:37.938Z,98644.74
2019-03-23T11:20:39.470Z,98649.48
2019-03-23T11:22:41.071Z,98646.50
2019-03-23T11:24:42.646Z,98647.83
2019-03-23T11:26:44.296Z,98641.42
2019-03-23T11:28:45.949Z,98638.98
2019-03-23T11:30:47.522Z,98645.48
2019-03-23T11:32:49.145Z,98640.73
2019-03-23T11:34:50.735Z,98639.47
2019-03-23T11:36:52.339Z,98641.79
2019-03-23T11:38:53.962Z,98642.23
2019-03-23T11:40:55.568Z,98638.14
2019-03-23T11:42:57.202Z,98639.17
2019-03-23T11:44:58.834Z,98639.05
2019-03-23T11:47:00.427Z,98630.87
2019-03-23T11:49:02.062Z,98635.91
2019-03-23T11:51:03.679Z,98635.02
2019-03-23T11:53:05.254Z,98633.80
2019-03-23T11:55:06.871Z,98630.80
2019-03-23T11:57:08.466Z,98621.41
2019-03-23T11:59:10.074Z,98621.88
2019-03-23T12:01:11.679Z,98622.78
2019-03-23T12:03:13.285Z,98624.70
2019-03-23T12:05:14.895Z,98621.84
2019-03-23T12:07:16.493Z,98620.03
2019-03-23T12:09:18.139Z,98618.45
2019-03-23T12:11:19.848Z,98625.72
2019-03-23T12:13:21.473Z,98619.81
2019-03-23T12:15:23.084Z,98617.78
2019-03-23T12:17:24.820Z,98623.91
2019-03-23T12:19:26.426Z,98620.91
2019-03-23T12:21:28.035Z,98618.36
2019-03-23T12:23:29.692Z,98618.36
2019-03-23T12:25:31.401Z,98609.38
2019-03-23T12:27:33.399Z,98616.16
2019-03-23T12:29:34.970Z,98616.27
2019-03-23T12:31:36.555Z,98617.67
2019-03-23T12:33:38.158Z,98618.12
2019-03-23T12:35:39.749Z,98619.03
2019-03-23T12:37:41.354Z,98616.45
2019-03-23T12:39:42.935Z,98617.27
2019-03-23T12:41:44.535Z,98620.73
2019-03-23T12:43:46.173Z,98630.20
2019-03-23T12:45:47.760Z,98616.95
2019-03-23T12:47:49.427Z,98620.33
2019-03-23T12:49:51.019Z,98621.17
2019-03-23T12:51:52.629Z,98615.59
2019-03-23T12:53:54.320Z,98611.27
2019-03-23T12:55:55.928Z,98609.50
2019-03-23T12:57:57.567Z,98609.91
2019-03-23T12:59:59.154Z,98599.23
2019-03-23T13:02:00.731Z,98600.03
2019-03-23T13:04:02.354Z,98602.94
2019-03-23T13:06:03.951Z,98596.42
2019-03-23T13:08:05.536Z,98592.63
2019-03-23T13:10:07.119Z,98595.17
2019-03-23T13:12:08.733Z,98596.28
2019-03-23T13:14:10.537Z,98598.86
2019-03-23T13:16:12.283Z,98592.72
2019-03-23T13:18:14.001Z,98591.59
2019-03-23T13:20:15.705Z,98589.16
2019-03-23T13:22:17.256Z,98595.67
2019-03-23T13:24:18.895Z,98590.68
2019-03-23T13:26:20.504Z,98592.02
2019-03-23T13:28:22.109Z,98590.02
2019-03-23T13:30:23.720Z,98586.76
2019-03-23T13:32:25.290Z,98581.25
2019-03-23T13:34:26.896Z,98582.61
2019-03-23T13:36:28.484Z,98591.64
2019-03-23T13:38:30.069Z,98580.23
2019-03-23T13:40:31.642Z,98584.13
2019-03-23T13:42:34.153Z,98582.94
2019-03-23T13:44:34.919Z,98584.72
2019-03-23T13:46:36.523Z,98586.00
2019-03-23T13:48:38.107Z,98577.51
2019-03-23T13:50:39.716Z,98580.56
2019-03-23T13:52:41.340Z,98576.34
2019-03-23T13:54:42.930Z,98578.11
2019-03-23T13:56:44.513Z,98578.06
2019-03-23T13:58:46.194Z,98575.68
2019-03-23T14:00:47.884Z,98575.56
2019-03-23T14:02:49.583Z,98570.81
2019-03-23T14:04:51.205Z,98569.96
2019-03-23T14:06:52.802Z,98574.19
2019-03-23T14:08:54.449Z,98572.05
2019-03-23T14:10:56.059Z,98574.61
2019-03-23T14:12:57.708Z,98575.47
2019-03-23T14:14:59.286Z,98572.91
2019-03-23T14:17:00.984Z,98573.32
2019-03-23T14:19:02.631Z,98572.85
2019-03-23T14:21:04.230Z,98568.93
2019-03-23T14:23:05.819Z,98571.88
2019-03-23T14:25:07.425Z,98571.86
2019-03-23T14:27:09.033Z,98577.44
2019-03-23T14:29:11.396Z,98572.78
2019-03-23T14:31:12.990Z,98574.08
2019-03-23T14:33:14.571Z,98570.72
2019-03-23T14:35:16.227Z,98564.78
2019-03-23T14:37:17.817Z,98571.44
2019-03-23T14:39:19.547Z,98549.33
2019-03-23T14:41:21.132Z,98569.27
2019-03-23T14:43:22.740Z,98575.80
2019-03-23T14:45:24.396Z,98572.54
2019-03-23T14:47:25.980Z,98566.66
2019-03-23T14:49:27.600Z,98571.03
2019-03-23T14:51:29.199Z,98570.66
2019-03-23T14:53:30.811Z,98570.71
2019-03-23T14:55:32.432Z,98579.67
2019-03-23T14:57:34.019Z,98573.74
2019-03-23T14:59:35.664Z,98576.31
2019-03-23T15:01:38.740Z,98580.67
2019-03-23T15:03:38.901Z,98577.78
2019-03-23T15:05:40.552Z,98574.81
2019-03-23T15:07:42.130Z,98572.30
2019-03-23T15:09:43.741Z,98574.05
2019-03-23T15:11:45.365Z,98575.37
2019-03-23T15:13:47.618Z,98569.84
2019-03-23T15:15:48.675Z,98566.48
2019-03-23T15:17:50.246Z,98575.42
2019-03-23T15:19:51.828Z,98572.48
2019-03-23T15:21:53.458Z,98576.37
2019-03-23T15:23:55.090Z,98570.84
2019-03-23T15:25:56.688Z,98572.58
2019-03-23T15:27:58.345Z,98576.90
2019-03-23T15:30:00.201Z,98576.94
2019-03-23T15:32:01.863Z,98571.94
2019-03-23T15:34:03.468Z,98575.39
2019-03-23T15:36:05.092Z,98579.27
2019-03-23T15:38:06.691Z,98582.27
2019-03-23T15:40:08.330Z,98579.78
2019-03-23T15:42:09.926Z,98584.05
2019-03-23T15:44:11.692Z,98584.95
2019-03-23T15:46:13.274Z,98585.84
2019-03-23T15:48:14.911Z,98581.20
2019-03-23T15:50:16.520Z,98578.73
2019-03-23T15:52:18.133Z,98577.92
2019-03-23T15:54:19.787Z,98591.77
2019-03-23T15:56:21.379Z,98598.66
2019-03-23T15:58:23.000Z,98588.87
2019-03-23T16:00:24.596Z,98593.59
2019-03-23T16:02:26.237Z,98588.52
2019-03-23T16:04:27.820Z,98597.04
2019-03-23T16:06:29.400Z,98589.88
2019-03-23T16:08:31.010Z,98593.71
2019-03-23T16:10:32.592Z,98597.58
2019-03-23T16:12:35.279Z,98595.95
2019-03-23T16:14:35.842Z,98580.39
2019-03-23T16:16:37.430Z,98596.50
2019-03-23T16:18:39.039Z,98604.59
2019-03-23T16:20:40.678Z,98603.34
2019-03-23T16:22:42.548Z,98602.92
2019-03-23T16:24:44.240Z,98600.40
2019-03-23T16:26:45.827Z,98597.81
2019-03-23T16:28:47.402Z,98595.80
2019-03-23T16:30:49.012Z,98556.48
2019-03-23T16:32:50.632Z,98619.14
2019-03-23T16:34:52.221Z,98597.77
2019-03-23T16:36:53.828Z,98599.27
2019-03-23T16:38:55.432Z,98598.69
2019-03-23T16:40:57.024Z,98600.42
2019-03-23T16:42:58.608Z,98606.51
2019-03-23T16:45:00.368Z,98599.52
2019-03-23T16:47:01.843Z,98608.80
2019-03-23T16:49:03.479Z,98609.20
2019-03-23T16:51:05.086Z,98607.71
2019-03-23T16:53:06.671Z,98610.05
2019-03-23T16:55:08.256Z,98604.76
2019-03-23T16:57:09.829Z,98605.19
2019-03-23T16:59:11.467Z,98609.16
2019-03-23T17:01:13.057Z,98615.34
2019-03-23T17:03:14.696Z,98607.71
2019-03-23T17:05:16.283Z,98613.14
2019-03-23T17:07:17.883Z,98613.07
2019-03-23T17:09:19.528Z,98612.76
2019-03-23T17:11:21.136Z,98615.32
2019-03-23T17:13:22.788Z,98608.56
2019-03-23T17:15:24.395Z,98615.83
2019-03-23T17:17:26.000Z,98617.33
2019-03-23T17:19:27.630Z,98609.95
2019-03-23T17:21:29.214Z,98608.74
2019-03-23T17:23:30.799Z,98609.73
2019-03-23T17:25:32.421Z,98614.14
2019-03-23T17:27:34.004Z,98611.40
2019-03-23T17:29:35.643Z,98614.30
2019-03-23T17:31:37.229Z,98614.06
2019-03-23T17:33:38.887Z,98613.89
2019-03-23T17:35:40.473Z,98620.26
2019-03-23T17:37:42.058Z,98626.42
2019-03-23T17:39:43.703Z,98626.36
2019-03-23T17:41:45.286Z,98602.98
2019-03-23T17:43:46.888Z,98626.64
2019-03-23T17:45:48.477Z,98627.52
2019-03-23T17:47:50.059Z,98627.51
2019-03-23T17:49:51.666Z,98644.25
2019-03-23T17:51:55.398Z,98659.37
2019-03-23T17:53:58.824Z,98658.83
2019-03-23T17:55:56.628Z,98667.69
2019-03-23T17:57:58.244Z,98672.75
2019-03-23T17:59:59.831Z,98675.64
2019-03-23T18:02:01.406Z,98686.81
2019-03-23T18:04:03.027Z,98686.84
2019-03-23T18:06:04.635Z,98688.47
2019-03-23T18:08:06.273Z,98686.75
2019-03-23T18:10:07.875Z,98697.27
2019-03-23T18:12:09.463Z,98702.44
2019-03-23T18:14:11.215Z,98707.18
2019-03-23T18:16:12.801Z,98709.78
2019-03-23T18:18:14.408Z,98711.11
2019-03-23T18:20:16.016Z,98707.75
2019-03-23T18:22:17.604Z,98718.03
2019-03-23T18:24:19.198Z,98724.50
2019-03-23T18:26:20.808Z,98727.95
2019-03-23T18:28:22.405Z,98726.71
2019-03-23T18:30:24.050Z,98737.38
2019-03-23T18:32:25.647Z,98742.94
2019-03-23T18:34:27.281Z,98738.23
2019-03-23T18:36:28.863Z,98743.36
2019-03-23T18:38:30.438Z,98741.66
2019-03-23T18:40:32.048Z,98756.11
2019-03-23T18:42:33.705Z,98757.39
2019-03-23T18:44:35.469Z,98756.55
2019-03-23T18:46:37.080Z,98761.27
2019-03-23T18:48:38.709Z,98763.45
2019-03-23T18:50:42.520Z,98762.60
2019-03-23T18:52:41.959Z,98766.91
2019-03-23T18:54:43.575Z,98766.09
2019-03-23T18:56:45.161Z,98766.09
2019-03-23T18:58:46.795Z,98771.64
2019-03-23T19:00:48.411Z,98769.98
2019-03-23T19:02:50.048Z,98777.62
2019-03-23T19:04:51.626Z,98772.45
2019-03-23T19:06:54.061Z,98780.52
2019-03-23T19:08:55.633Z,98783.50
2019-03-23T19:10:57.213Z,98786.88
2019-03-23T19:12:58.813Z,98786.88
2019-03-23T19:15:00.455Z,98784.31
2019-03-23T19:17:02.125Z,98786.45
2019-03-23T19:19:03.708Z,98789.52
2019-03-23T19:21:05.303Z,98749.38
2019-03-23T19:23:06.892Z,98794.64
2019-03-23T19:25:17.023Z,98801.08
2019-03-23T19:27:10.152Z,98807.91
2019-03-23T19:29:11.755Z,98810.08
2019-03-23T19:31:13.342Z,98812.25
2019-03-23T19:33:14.948Z,98815.67
2019-03-23T19:35:16.553Z,98769.58
2019-03-23T19:37:18.145Z,98813.53
2019-03-23T19:39:19.728Z,98818.62
2019-03-23T19:41:22.996Z,98833.55
2019-03-23T19:43:24.603Z,98802.14
2019-03-23T19:45:26.518Z,98833.97
2019-03-23T19:47:28.280Z,98827.19
2019-03-23T19:49:29.880Z,98836.57
2019-03-23T19:51:31.561Z,98837.85
2019-03-23T19:53:33.139Z,98842.12
2019-03-23T19:55:34.758Z,98837.42
2019-03-23T19:57:36.344Z,98845.95
2019-03-23T19:59:37.956Z,98843.01
2019-03-23T20:01:39.560Z,98845.41
2019-03-23T20:03:41.149Z,98845.68
2019-03-23T20:05:42.787Z,98828.81
2019-03-23T20:07:44.381Z,98857.92
2019-03-23T20:09:45.959Z,98857.45
2019-03-23T20:11:47.605Z,98858.66
2019-03-23T20:13:58.445Z,98860.36
2019-03-23T20:15:50.860Z,98855.28
2019-03-23T20:17:52.452Z,98866.75
2019-03-23T20:19:54.064Z,98871.83
2019-03-23T20:21:55.638Z,98870.59
2019-03-23T20:23:57.293Z,98876.55
2019-03-23T20:25:58.961Z,98865.53
2019-03-23T20:28:00.646Z,98847.87
2019-03-23T20:30:02.276Z,98876.34
2019-03-23T20:32:03.894Z,98873.20
2019-03-23T20:34:05.493Z,98868.00
2019-03-23T20:36:07.106Z,98870.56
2019-03-23T20:38:08.712Z,98921.80
2019-03-23T20:40:10.316Z,98866.63
2019-03-23T20:42:11.908Z,98873.84
2019-03-23T20:44:13.506Z,98872.23
2019-03-23T20:46:15.092Z,98873.99
2019-03-23T20:48:16.684Z,98871.47
2019-03-23T20:50:18.272Z,98868.44
2019-03-23T20:52:19.909Z,98875.17
2019-03-23T20:54:21.481Z,98875.91
2019-03-23T20:56:23.112Z,98872.87
2019-03-23T20:58:24.715Z,98859.51
2019-03-23T21:00:26.367Z,98875.02
2019-03-23T21:02:27.980Z,98874.58
2019-03-23T21:04:29.591Z,98875.02
2019-03-23T21:06:31.203Z,98870.18
2019-03-23T21:08:32.816Z,98867.52
2019-03-23T21:10:34.413Z,98867.64
2019-03-23T21:12:36.038Z,98872.66
2019-03-23T21:14:37.659Z,98872.66
2019-03-23T21:16:39.251Z,98864.11
2019-03-23T21:18:40.866Z,98868.33
2019-03-23T21:20:42.519Z,98872.29
2019-03-23T21:22:44.135Z,98877.58
2019-03-23T21:24:45.707Z,98879.33
2019-03-23T21:26:47.333Z,98875.82
2019-03-23T21:28:48.931Z,98876.98
2019-03-23T21:30:50.511Z,98870.68
2019-03-23T21:32:52.151Z,98869.94
2019-03-23T21:34:53.734Z,98876.02
2019-03-23T21:36:55.356Z,98867.95
2019-03-23T21:38:56.936Z,98876.97
2019-03-23T21:40:58.736Z,98876.40
2019-03-23T21:43:00.306Z,98870.89
2019-03-23T21:45:01.877Z,98871.37
2019-03-23T21:47:03.523Z,98868.47
2019-03-23T21:49:05.135Z,98863.47
2019-03-23T21:51:06.710Z,98856.95
2019-03-23T21:53:08.345Z,98858.25
2019-03-23T21:55:09.937Z,98868.16
2019-03-23T21:57:11.575Z,98863.80
2019-03-23T21:59:13.160Z,98843.34
2019-03-23T22:01:14.743Z,98864.48
2019-03-23T22:03:16.379Z,98861.16
2019-03-23T22:05:17.964Z,98821.95
2019-03-23T22:07:19.587Z,98864.21
2019-03-23T22:09:21.172Z,98873.61
2019-03-23T22:11:22.779Z,98876.23
2019-03-23T22:13:24.419Z,98880.29
2019-03-23T22:15:26.059Z,98886.79
2019-03-23T22:17:27.654Z,98880.00
2019-03-23T22:19:29.244Z,98878.57
2019-03-23T22:21:30.852Z,98876.86
2019-03-23T22:23:32.464Z,98873.78
2019-03-23T22:25:34.071Z,98875.54
2019-03-23T22:27:35.727Z,98872.12
2019-03-23T22:29:37.307Z,98863.34
2019-03-23T22:31:38.889Z,98866.52
2019-03-23T22:33:40.472Z,98860.20
2019-03-23T22:35:42.063Z,98862.44
2019-03-23T22:37:43.714Z,98861.66
2019-03-23T22:39:45.290Z,98865.13
2019-03-23T22:41:46.891Z,98857.95
2019-03-23T22:43:48.499Z,98863.55
2019-03-23T22:45:50.110Z,98863.98
2019-03-23T22:47:51.724Z,98860.61
2019-03-23T22:49:53.362Z,98858.47
2019-03-23T22:51:55.915Z,98863.13
2019-03-23T22:53:57.521Z,98861.89
2019-03-23T22:55:59.094Z,98860.19
2019-03-23T22:58:00.695Z,98855.53
2019-03-23T23:00:02.307Z,98856.85
2019-03-23T23:02:03.888Z,98858.09
2019-03-23T23:04:05.472Z,98853.02
2019-03-23T23:06:07.066Z,98854.25
2019-03-23T23:08:08.666Z,98862.40
2019-03-23T23:10:10.252Z,98858.52
2019-03-23T23:12:11.836Z,98868.68
2019-03-23T23:14:13.446Z,98863.17
2019-03-23T23:16:15.059Z,98860.56
2019-03-23T23:18:16.673Z,98864.33
2019-03-23T23:20:18.330Z,98857.84
2019-03-23T23:22:19.920Z,98861.50
2019-03-23T23:24:21.494Z,98850.02
2019-03-23T23:26:23.116Z,98854.52
2019-03-23T23:28:24.695Z,98847.80
2019-03-23T23:30:26.281Z,98850.37
2019-03-23T23:32:27.900Z,98859.41
2019-03-23T23:34:29.504Z,98850.14
2019-03-23T23:36:31.155Z,98844.69
2019-03-23T23:38:32.768Z,98848.16
2019-03-23T23:40:34.343Z,98847.35
2019-03-23T23:42:35.971Z,98848.20
2019-03-23T23:44:37.541Z,98847.81
2019-03-23T23:46:39.184Z,98843.59
2019-03-23T23:48:50.868Z,98845.34
2019-03-23T23:50:42.424Z,98843.27
2019-03-23T23:52:44.072Z,98843.31
2019-03-23T23:54:45.677Z,98842.95
2019-03-23T23:56:47.285Z,98839.16
2019-03-23T23:58:48.917Z,98839.19
